createdAt,value
2023-01-29T00:00:11.727Z,102187.53
2023-01-29T00:02:39.769Z,102183.06
2023-01-29T00:05:25.945Z,102183.94
2023-01-29T00:07:56.699Z,102179.53
2023-01-29T00:10:25.913Z,102179.50
2023-01-29T00:12:54.036Z,102182.13
2023-01-29T00:15:22.267Z,102186.47
2023-01-29T00:17:50.377Z,102182.94
2023-01-29T00:20:19.401Z,102177.69
2023-01-29T00:22:47.898Z,102176.03
2023-01-29T00:25:17.500Z,102175.94
2023-01-29T00:27:45.649Z,102178.47
2023-01-29T00:30:19.326Z,102178.53
2023-01-29T00:32:47.964Z,102174.13
2023-01-29T00:35:16.045Z,102175.84
2023-01-29T00:37:44.059Z,102167.94
2023-01-29T00:40:13.387Z,102165.31
2023-01-29T00:43:02.950Z,102158.25
2023-01-29T00:45:31.660Z,102162.59
2023-01-29T00:47:59.704Z,102164.38
2023-01-29T00:50:27.735Z,102160.78
2023-01-29T00:52:55.787Z,102165.22
2023-01-29T00:55:23.949Z,102162.59
2023-01-29T00:57:53.336Z,102161.66
2023-01-29T01:00:22.232Z,102160.78
2023-01-29T01:03:07.377Z,102169.44
2023-01-29T01:05:36.761Z,102172.06
2023-01-29T01:08:25.702Z,102167.69
2023-01-29T01:11:00.809Z,102167.69
2023-01-29T01:13:30.837Z,102161.56
2023-01-29T01:15:58.978Z,102158.03
2023-01-29T01:18:30.717Z,102158.03
2023-01-29T01:20:59.690Z,102149.22
2023-01-29T01:23:28.002Z,102152.66
2023-01-29T01:25:56.160Z,102147.47
2023-01-29T01:28:24.320Z,102135.16
2023-01-29T01:30:53.806Z,102125.56
2023-01-29T01:33:22.063Z,102112.53
2023-01-29T01:35:50.109Z,102109.91
2023-01-29T01:38:18.127Z,102114.22
2023-01-29T01:40:47.422Z,102114.22
2023-01-29T01:43:15.492Z,102109.09
2023-01-29T01:45:46.511Z,102114.34
2023-01-29T01:48:23.028Z,102107.38
2023-01-29T01:50:57.511Z,102098.56
2023-01-29T01:53:34.481Z,102099.53
2023-01-29T01:56:07.689Z,102101.38
2023-01-29T01:58:40.403Z,102104.06
2023-01-29T02:01:10.827Z,102109.34
2023-01-29T02:04:12.323Z,102110.22
2023-01-29T02:06:59.719Z,102117.25
2023-01-29T02:09:36.165Z,102123.34
2023-01-29T02:12:06.901Z,102124.19
2023-01-29T02:14:38.888Z,102126.81
2023-01-29T02:17:08.878Z,102132.94
2023-01-29T02:19:51.589Z,102127.72
2023-01-29T02:22:47.126Z,102132.06
2023-01-29T02:25:51.458Z,102147.97
2023-01-29T02:28:39.009Z,102154.03
2023-01-29T02:31:18.248Z,102153.97
2023-01-29T02:34:01.468Z,102152.25
2023-01-29T02:36:41.854Z,102160.91
2023-01-29T02:39:22.259Z,102164.41
2023-01-29T02:42:01.618Z,102160.06
2023-01-29T02:44:40.369Z,102159.38
2023-01-29T02:47:18.615Z,102161.09
2023-01-29T02:49:53.943Z,102159.25
2023-01-29T02:52:35.242Z,102152.28
2023-01-29T02:55:14.026Z,102154.91
2023-01-29T02:57:47.948Z,102158.47
2023-01-29T03:00:23.662Z,102151.47
2023-01-29T03:02:59.476Z,102144.50
2023-01-29T03:05:36.058Z,102137.50
2023-01-29T03:08:12.112Z,102132.25
2023-01-29T03:10:48.375Z,102130.56
2023-01-29T03:13:24.589Z,102128.84
2023-01-29T03:16:03.945Z,102125.31
2023-01-29T03:18:41.189Z,102118.22
2023-01-29T03:21:29.575Z,102113.78
2023-01-29T03:24:18.880Z,102114.53
2023-01-29T03:27:04.638Z,102119.72
2023-01-29T03:29:53.549Z,102119.72
2023-01-29T03:32:28.770Z,102131.84
2023-01-29T03:35:04.787Z,102125.59
2023-01-29T03:37:41.101Z,102123.81
2023-01-29T03:40:11.519Z,102124.63
2023-01-29T03:43:06.848Z,102109.72
2023-01-29T03:45:44.611Z,102112.31
2023-01-29T03:48:25.999Z,102114.03
2023-01-29T03:51:02.912Z,102111.44
2023-01-29T03:53:44.152Z,102108.78
2023-01-29T03:56:30.343Z,102107.03
2023-01-29T03:59:07.992Z,102086.91
2023-01-29T04:01:48.525Z,102088.69
2023-01-29T04:04:27.860Z,102093.91
2023-01-29T04:07:04.715Z,102093.00
2023-01-29T04:09:41.391Z,102078.91
2023-01-29T04:12:13.134Z,102081.50
2023-01-29T04:14:41.443Z,102078.78
2023-01-29T04:17:16.215Z,102076.22
2023-01-29T04:19:46.090Z,102067.44
2023-01-29T04:22:21.215Z,102063.94
2023-01-29T04:24:51.247Z,102058.63
2023-01-29T04:27:30.798Z,102046.41
2023-01-29T04:30:23.477Z,102041.13
2023-01-29T04:33:05.208Z,102038.50
2023-01-29T04:36:01.923Z,102030.53
2023-01-29T04:38:55.761Z,102033.06
2023-01-29T04:41:32.849Z,102022.53
2023-01-29T04:44:10.587Z,102025.13
2023-01-29T04:46:51.277Z,102012.84
2023-01-29T04:49:36.799Z,102012.75
2023-01-29T04:52:18.367Z,102014.47
2023-01-29T04:55:02.495Z,102014.47
2023-01-29T04:57:41.838Z,102009.16
2023-01-29T05:00:19.635Z,102003.09
2023-01-29T05:02:49.236Z,101999.56
2023-01-29T05:05:21.635Z,101989.81
2023-01-29T05:07:51.692Z,102004.69
2023-01-29T05:10:23.601Z,101993.31
2023-01-29T05:12:59.817Z,101992.44
2023-01-29T05:15:35.659Z,101996.84
2023-01-29T05:18:08.733Z,101992.44
2023-01-29T05:20:40.890Z,102001.25
2023-01-29T05:23:17.119Z,102004.81
2023-01-29T05:25:46.326Z,102010.09
2023-01-29T05:28:16.510Z,102001.38
2023-01-29T05:30:47.454Z,101999.69
2023-01-29T05:33:18.219Z,102004.94
2023-01-29T05:35:46.963Z,102006.63
2023-01-29T05:38:17.507Z,102006.63
2023-01-29T05:40:46.172Z,102013.63
2023-01-29T05:43:18.576Z,102011.91
2023-01-29T05:45:54.541Z,102004.88
2023-01-29T05:48:23.249Z,102013.63
2023-01-29T05:50:52.118Z,102010.94
2023-01-29T05:53:21.738Z,102022.28
2023-01-29T05:55:50.055Z,102020.41
2023-01-29T05:58:19.627Z,102015.16
2023-01-29T06:00:47.686Z,102019.50
2023-01-29T06:03:15.881Z,102034.31
2023-01-29T06:05:44.024Z,102042.19
2023-01-29T06:08:12.056Z,102028.09
2023-01-29T06:10:41.480Z,102034.19
2023-01-29T06:13:09.505Z,102039.44
2023-01-29T06:15:40.968Z,102027.22
2023-01-29T06:18:09.043Z,102030.75
2023-01-29T06:20:38.005Z,102023.66
2023-01-29T06:23:06.081Z,102028.91
2023-01-29T06:25:34.093Z,102020.97
2023-01-29T06:28:03.485Z,102021.84
2023-01-29T06:30:31.842Z,102016.50
2023-01-29T06:33:01.613Z,102010.34
2023-01-29T06:35:29.919Z,102023.56
2023-01-29T06:37:58.122Z,102027.03
2023-01-29T06:40:26.494Z,102019.94
2023-01-29T06:42:54.537Z,102028.69
2023-01-29T06:45:24.008Z,102032.25
2023-01-29T06:47:52.557Z,102032.25
2023-01-29T06:50:21.146Z,102015.69
2023-01-29T06:52:49.198Z,102019.09
2023-01-29T06:55:17.409Z,102022.59
2023-01-29T06:57:45.422Z,102043.56
2023-01-29T07:00:15.997Z,102044.50
2023-01-29T07:02:45.478Z,102029.56
2023-01-29T07:05:13.507Z,102040.91
2023-01-29T07:07:41.629Z,102064.59
2023-01-29T07:10:11.539Z,102067.22
2023-01-29T07:12:39.552Z,102069.97
2023-01-29T07:15:09.640Z,102063.03
2023-01-29T07:17:37.699Z,102051.66
2023-01-29T07:20:09.510Z,102058.69
2023-01-29T07:22:37.572Z,102061.19
2023-01-29T07:25:07.199Z,102055.97
2023-01-29T07:27:35.258Z,102049.00
2023-01-29T07:30:03.304Z,102055.03
2023-01-29T07:32:31.380Z,102037.38
2023-01-29T07:34:59.405Z,102011.97
2023-01-29T07:37:28.818Z,102008.41
2023-01-29T07:39:56.837Z,102017.94
2023-01-29T07:42:25.033Z,102013.44
2023-01-29T07:44:53.056Z,102008.16
2023-01-29T07:47:21.077Z,102013.34
2023-01-29T07:49:49.095Z,102019.47
2023-01-29T07:52:17.165Z,102011.50
2023-01-29T07:54:46.551Z,102007.03
2023-01-29T07:57:14.654Z,101987.81
2023-01-29T07:59:43.014Z,101973.75
2023-01-29T08:02:11.777Z,101974.69
2023-01-29T08:04:40.207Z,101986.91
2023-01-29T08:07:09.376Z,101999.22
2023-01-29T08:09:37.785Z,101993.88
2023-01-29T08:12:07.839Z,101998.34
2023-01-29T08:14:35.917Z,102000.09
2023-01-29T08:17:04.069Z,101993.09
2023-01-29T08:19:32.136Z,101993.13
2023-01-29T08:22:00.163Z,101996.88
2023-01-29T08:24:36.142Z,101996.09
2023-01-29T08:27:17.272Z,101992.66
2023-01-29T08:29:45.639Z,101989.91
2023-01-29T08:32:13.668Z,101998.81
2023-01-29T08:34:41.707Z,101999.03
2023-01-29T08:37:09.726Z,101998.94
2023-01-29T08:39:37.745Z,101995.53
2023-01-29T08:42:06.041Z,101989.38
2023-01-29T08:44:35.466Z,101992.91
2023-01-29T08:47:03.876Z,101992.78
2023-01-29T08:49:31.922Z,101995.28
2023-01-29T08:52:02.328Z,101989.03
2023-01-29T08:54:31.065Z,101990.75
2023-01-29T08:56:59.131Z,101980.22
2023-01-29T08:59:27.197Z,101976.63
2023-01-29T09:01:56.616Z,101973.97
2023-01-29T09:04:24.954Z,101973.97
2023-01-29T09:06:53.276Z,101978.28
2023-01-29T09:09:21.331Z,101968.50
2023-01-29T09:11:49.428Z,101962.25
2023-01-29T09:14:17.618Z,101956.00
2023-01-29T09:16:45.761Z,101943.66
2023-01-29T09:19:16.370Z,101941.94
2023-01-29T09:21:44.496Z,101939.28
2023-01-29T09:24:12.515Z,101947.19
2023-01-29T09:26:41.201Z,101935.75
2023-01-29T09:29:11.458Z,101937.41
2023-01-29T09:31:39.569Z,101939.94
2023-01-29T09:34:07.678Z,101947.72
2023-01-29T09:36:37.148Z,101941.53
2023-01-29T09:39:05.328Z,101938.84
2023-01-29T09:41:49.385Z,101932.59
2023-01-29T09:44:29.325Z,101937.69
2023-01-29T09:47:00.272Z,101937.59
2023-01-29T09:49:37.452Z,101932.19
2023-01-29T09:52:16.020Z,101926.81
2023-01-29T09:54:58.502Z,101937.25
2023-01-29T09:57:35.460Z,101923.13
2023-01-29T10:00:03.504Z,101924.81
2023-01-29T10:03:10.617Z,101915.91
2023-01-29T10:06:00.366Z,101914.84
2023-01-29T10:08:57.920Z,101923.53
2023-01-29T10:11:43.912Z,101911.16
2023-01-29T10:14:23.679Z,101911.09
2023-01-29T10:17:29.010Z,101909.22
2023-01-29T10:20:26.047Z,101914.44
2023-01-29T10:23:19.782Z,101917.03
2023-01-29T10:25:50.698Z,101918.66
2023-01-29T10:28:24.709Z,101921.31
2023-01-29T10:31:00.905Z,101923.84
2023-01-29T10:33:49.082Z,101923.94
2023-01-29T10:36:36.218Z,101922.09
2023-01-29T10:39:04.577Z,101923.84
2023-01-29T10:41:54.114Z,101922.09
2023-01-29T10:44:39.410Z,101915.03
2023-01-29T10:47:59.637Z,101909.72
2023-01-29T10:50:48.841Z,101895.59
2023-01-29T10:53:38.328Z,101893.78
2023-01-29T10:56:30.954Z,101877.03
2023-01-29T10:59:06.066Z,101879.59
2023-01-29T11:01:34.164Z,101871.63
2023-01-29T11:04:05.144Z,101855.75
2023-01-29T11:06:35.879Z,101855.69
2023-01-29T11:09:13.779Z,101851.34
2023-01-29T11:11:51.319Z,101865.28
2023-01-29T11:14:28.342Z,101852.91
2023-01-29T11:16:57.415Z,101846.66
2023-01-29T11:19:41.766Z,101843.09
2023-01-29T11:22:16.348Z,101838.53
2023-01-29T11:24:45.465Z,101827.00
2023-01-29T11:27:25.820Z,101838.41
2023-01-29T11:29:56.617Z,101827.72
2023-01-29T11:32:34.462Z,101830.19
2023-01-29T11:35:06.578Z,101825.84
2023-01-29T11:37:38.405Z,101813.47
2023-01-29T11:40:38.903Z,101815.16
2023-01-29T11:43:30.991Z,101807.25
2023-01-29T11:46:05.025Z,101799.28
2023-01-29T11:48:44.330Z,101803.56
2023-01-29T11:51:23.202Z,101799.16
2023-01-29T11:53:57.635Z,101792.88
2023-01-29T11:56:33.671Z,101786.63
2023-01-29T11:59:04.514Z,101783.97
2023-01-29T12:01:38.583Z,101773.34
2023-01-29T12:04:21.457Z,101772.34
2023-01-29T12:06:53.505Z,101764.44
2023-01-29T12:09:27.105Z,101761.59
2023-01-29T12:11:55.830Z,101769.44
2023-01-29T12:14:33.293Z,101758.59
2023-01-29T12:17:07.576Z,101765.47
2023-01-29T12:19:43.764Z,101755.03
2023-01-29T12:22:22.224Z,101767.97
2023-01-29T12:24:58.534Z,101764.41
2023-01-29T12:27:38.074Z,101760.00
2023-01-29T12:30:19.120Z,101753.88
2023-01-29T12:33:00.436Z,101748.44
2023-01-29T12:35:34.187Z,101753.72
2023-01-29T12:38:08.945Z,101744.88
2023-01-29T12:40:44.553Z,101746.59
2023-01-29T12:43:17.961Z,101743.97
2023-01-29T12:45:54.630Z,101737.72
2023-01-29T12:48:31.167Z,101735.91
2023-01-29T12:51:08.800Z,101730.63
2023-01-29T12:53:42.805Z,101727.19
2023-01-29T12:56:16.365Z,101727.03
2023-01-29T12:58:50.275Z,101727.03
2023-01-29T13:01:28.371Z,101722.72
2023-01-29T13:04:06.484Z,101720.94
2023-01-29T13:06:43.818Z,101719.13
2023-01-29T13:09:20.517Z,101720.06
2023-01-29T13:11:56.914Z,101712.31
2023-01-29T13:14:43.287Z,101707.88
2023-01-29T13:17:19.235Z,101691.13
2023-01-29T13:19:55.304Z,101690.13
2023-01-29T13:22:28.208Z,101685.78
2023-01-29T13:25:04.749Z,101680.56
2023-01-29T13:27:36.532Z,101671.81
2023-01-29T13:30:06.233Z,101670.88
2023-01-29T13:32:37.455Z,101666.22
2023-01-29T13:35:15.612Z,101653.97
2023-01-29T13:37:50.163Z,101659.16
2023-01-29T13:40:26.804Z,101662.59
2023-01-29T13:42:59.964Z,101658.00
2023-01-29T13:45:37.091Z,101650.69
2023-01-29T13:48:22.404Z,101662.13
2023-01-29T13:50:55.530Z,101650.38
2023-01-29T13:53:28.113Z,101646.97
2023-01-29T13:55:56.551Z,101647.03
2023-01-29T13:58:56.006Z,101644.41
2023-01-29T14:02:04.925Z,101634.72
2023-01-29T14:04:34.171Z,101635.72
2023-01-29T14:07:49.752Z,101621.78
2023-01-29T14:10:21.229Z,101623.56
2023-01-29T14:12:55.426Z,101610.44
2023-01-29T14:15:33.654Z,101607.03
2023-01-29T14:18:20.940Z,101612.31
2023-01-29T14:21:03.734Z,101600.22
2023-01-29T14:23:44.003Z,101616.91
2023-01-29T14:26:28.588Z,101608.28
2023-01-29T14:29:05.030Z,101608.47
2023-01-29T14:31:42.322Z,101611.84
2023-01-29T14:34:23.488Z,101597.81
2023-01-29T14:36:56.730Z,101600.44
2023-01-29T14:39:43.553Z,101600.59
2023-01-29T14:42:24.667Z,101603.34
2023-01-29T14:45:23.259Z,101599.75
2023-01-29T14:48:03.931Z,101604.19
2023-01-29T14:50:48.635Z,101588.38
2023-01-29T14:53:29.394Z,101594.47
2023-01-29T14:56:04.102Z,101585.66
2023-01-29T14:58:45.005Z,101585.75
2023-01-29T15:01:30.294Z,101584.63
2023-01-29T15:04:05.566Z,101596.13
2023-01-29T15:06:42.887Z,101581.22
2023-01-29T15:09:18.356Z,101590.06
2023-01-29T15:11:57.053Z,101583.09
2023-01-29T15:14:34.819Z,101582.31
2023-01-29T15:17:26.550Z,101584.09
2023-01-29T15:19:56.615Z,101589.38
2023-01-29T15:22:26.377Z,101580.84
2023-01-29T15:25:07.644Z,101581.84
2023-01-29T15:27:37.251Z,101589.00
2023-01-29T15:30:09.011Z,101572.31
2023-01-29T15:32:40.961Z,101562.78
2023-01-29T15:35:18.598Z,101559.53
2023-01-29T15:38:00.975Z,101564.78
2023-01-29T15:40:29.695Z,101556.13
2023-01-29T15:42:59.270Z,101560.53
2023-01-29T15:45:31.992Z,101554.25
2023-01-29T15:48:08.609Z,101555.25
2023-01-29T15:50:42.226Z,101559.09
2023-01-29T15:53:19.090Z,101550.63
2023-01-29T15:55:48.791Z,101546.22
2023-01-29T15:58:25.198Z,101548.06
2023-01-29T16:00:56.845Z,101538.22
2023-01-29T16:03:29.467Z,101542.78
2023-01-29T16:05:58.225Z,101530.63
2023-01-29T16:08:29.027Z,101537.69
2023-01-29T16:11:01.599Z,101537.53
2023-01-29T16:13:35.283Z,101525.13
2023-01-29T16:16:07.962Z,101528.69
2023-01-29T16:18:50.666Z,101516.44
2023-01-29T16:21:31.367Z,101524.28
2023-01-29T16:24:03.481Z,101513.81
2023-01-29T16:26:36.523Z,101512.78
2023-01-29T16:29:09.831Z,101507.63
2023-01-29T16:31:39.798Z,101505.91
2023-01-29T16:34:10.920Z,101499.78
2023-01-29T16:36:45.735Z,101504.19
2023-01-29T16:39:21.438Z,101492.72
2023-01-29T16:42:22.372Z,101495.34
2023-01-29T16:44:57.185Z,101495.34
2023-01-29T16:47:31.463Z,101495.34
2023-01-29T16:50:02.337Z,101476.00
2023-01-29T16:52:33.799Z,101469.00
2023-01-29T16:55:20.481Z,101470.72
2023-01-29T16:57:54.809Z,101468.09
2023-01-29T17:00:28.593Z,101455.75
2023-01-29T17:03:03.850Z,101453.03
2023-01-29T17:05:36.921Z,101448.44
2023-01-29T17:08:06.335Z,101443.28
2023-01-29T17:10:35.899Z,101438.00
2023-01-29T17:13:10.610Z,101436.22
2023-01-29T17:15:47.813Z,101434.50
2023-01-29T17:18:20.398Z,101434.56
2023-01-29T17:20:49.313Z,101441.41
2023-01-29T17:23:18.001Z,101437.06
2023-01-29T17:25:47.309Z,101427.47
2023-01-29T17:28:17.925Z,101427.47
2023-01-29T17:31:00.085Z,101417.00
2023-01-29T17:33:28.678Z,101435.38
2023-01-29T17:35:57.073Z,101429.25
2023-01-29T17:38:26.933Z,101429.13
2023-01-29T17:40:59.711Z,101437.91
2023-01-29T17:43:28.475Z,101435.19
2023-01-29T17:45:57.977Z,101422.94
2023-01-29T17:48:29.227Z,101422.78
2023-01-29T17:51:01.458Z,101417.59
2023-01-29T17:53:44.307Z,101412.25
2023-01-29T17:56:19.078Z,101410.53
2023-01-29T17:58:47.162Z,101398.13
2023-01-29T18:01:16.626Z,101402.47
2023-01-29T18:03:44.755Z,101392.88
2023-01-29T18:06:26.110Z,101392.75
2023-01-29T18:08:54.328Z,101393.56
2023-01-29T18:11:22.485Z,101376.94
2023-01-29T18:13:50.634Z,101376.13
2023-01-29T18:16:21.914Z,101376.13
2023-01-29T18:18:50.940Z,101369.72
2023-01-29T18:21:19.240Z,101363.63
2023-01-29T18:23:47.292Z,101363.53
2023-01-29T18:26:17.823Z,101353.09
2023-01-29T18:28:45.941Z,101352.06
2023-01-29T18:31:14.513Z,101339.06
2023-01-29T18:33:44.215Z,101335.38
2023-01-29T18:36:12.315Z,101327.56
2023-01-29T18:38:40.453Z,101331.16
2023-01-29T18:41:11.476Z,101336.25
2023-01-29T18:43:41.019Z,101324.00
2023-01-29T18:46:10.485Z,101325.03
2023-01-29T18:48:39.915Z,101327.56
2023-01-29T18:51:10.355Z,101333.00
2023-01-29T18:53:38.407Z,101331.16
2023-01-29T18:56:08.480Z,101326.72
2023-01-29T18:58:37.487Z,101331.03
2023-01-29T19:01:09.931Z,101322.44
2023-01-29T19:03:38.504Z,101318.88
2023-01-29T19:06:11.033Z,101308.34
2023-01-29T19:08:39.377Z,101310.97
2023-01-29T19:11:08.917Z,101303.81
2023-01-29T19:13:38.325Z,101296.03
2023-01-29T19:16:09.280Z,101281.81
2023-01-29T19:18:38.763Z,101282.84
2023-01-29T19:21:13.939Z,101278.50
2023-01-29T19:23:43.601Z,101264.66
2023-01-29T19:26:13.301Z,101271.44
2023-01-29T19:28:41.790Z,101248.81
2023-01-29T19:31:10.835Z,101250.59
2023-01-29T19:33:39.890Z,101229.53
2023-01-29T19:36:11.808Z,101222.47
2023-01-29T19:38:40.159Z,101229.53
2023-01-29T19:41:08.310Z,101223.06
2023-01-29T19:43:38.099Z,101212.53
2023-01-29T19:46:07.364Z,101205.31
2023-01-29T19:48:35.823Z,101195.63
2023-01-29T19:51:08.390Z,101183.34
2023-01-29T19:53:39.815Z,101185.06
2023-01-29T19:56:11.525Z,101184.88
2023-01-29T19:58:40.350Z,101183.00
2023-01-29T20:01:14.796Z,101176.03
2023-01-29T20:03:45.887Z,101175.84
2023-01-29T20:06:16.472Z,101175.09
2023-01-29T20:08:46.690Z,101174.16
2023-01-29T20:11:15.142Z,101167.19
2023-01-29T20:13:43.311Z,101158.34
2023-01-29T20:16:11.464Z,101145.91
2023-01-29T20:18:39.574Z,101131.88
2023-01-29T20:21:10.649Z,101136.22
2023-01-29T20:23:40.233Z,101133.50
2023-01-29T20:26:14.019Z,101142.16
2023-01-29T20:28:43.179Z,101125.22
2023-01-29T20:31:11.743Z,101126.94
2023-01-29T20:33:40.378Z,101115.44
2023-01-29T20:36:11.576Z,101115.25
2023-01-29T20:38:39.952Z,101107.25
2023-01-29T20:41:14.735Z,101106.22
2023-01-29T20:43:44.323Z,101103.56
2023-01-29T20:46:12.806Z,101096.59
2023-01-29T20:48:42.000Z,101086.06
2023-01-29T20:51:15.143Z,101084.56
2023-01-29T20:53:45.520Z,101090.59
2023-01-29T20:56:16.792Z,101089.72
2023-01-29T20:58:46.514Z,101087.09
2023-01-29T21:01:18.252Z,101087.00
2023-01-29T21:03:47.471Z,101078.34
2023-01-29T21:06:16.169Z,101069.31
2023-01-29T21:08:44.329Z,101063.16
2023-01-29T21:11:13.915Z,101064.81
2023-01-29T21:13:43.868Z,101059.41
2023-01-29T21:16:11.967Z,101071.66
2023-01-29T21:18:40.338Z,101058.38
2023-01-29T21:21:08.572Z,101064.41
2023-01-29T21:23:36.695Z,101073.94
2023-01-29T21:26:06.662Z,101069.59
2023-01-29T21:28:36.376Z,101075.81
2023-01-29T21:31:06.822Z,101078.16
2023-01-29T21:33:35.257Z,101064.13
2023-01-29T21:36:04.557Z,101066.50
2023-01-29T21:38:32.720Z,101050.66
2023-01-29T21:41:02.495Z,101045.38
2023-01-29T21:43:29.568Z,101057.72
2023-01-29T21:46:01.062Z,101036.53
2023-01-29T21:48:29.143Z,101038.06
2023-01-29T21:50:57.325Z,101039.00
2023-01-29T21:53:25.436Z,101029.38
2023-01-29T21:55:53.515Z,101029.19
2023-01-29T21:58:21.553Z,101029.94
2023-01-29T22:00:49.753Z,101024.66
2023-01-29T22:03:19.215Z,101023.75
2023-01-29T22:05:47.276Z,101015.72
2023-01-29T22:08:15.332Z,101021.84
2023-01-29T22:10:43.500Z,101020.78
2023-01-29T22:13:11.755Z,101010.25
2023-01-29T22:15:39.845Z,101014.66
2023-01-29T22:18:07.990Z,101009.19
2023-01-29T22:20:37.514Z,100992.22
2023-01-29T22:23:05.578Z,100988.47
2023-01-29T22:25:34.074Z,100989.19
2023-01-29T22:28:02.197Z,100990.81
2023-01-29T22:30:30.342Z,100989.38
2023-01-29T22:32:58.404Z,100984.88
2023-01-29T22:35:26.450Z,101003.69
2023-01-29T22:37:55.953Z,100993.13
2023-01-29T22:40:24.251Z,100994.63
2023-01-29T22:42:52.263Z,100983.97
2023-01-29T22:45:20.391Z,100981.78
2023-01-29T22:47:48.552Z,100965.19
2023-01-29T22:50:17.192Z,100966.97
2023-01-29T22:52:54.017Z,100959.41
2023-01-29T22:55:23.663Z,100964.47
2023-01-29T22:57:53.378Z,100966.84
2023-01-29T23:00:22.267Z,100970.53
2023-01-29T23:02:51.099Z,100958.25
2023-01-29T23:05:19.790Z,100959.84
2023-01-29T23:07:47.827Z,100950.25
2023-01-29T23:10:17.448Z,100932.72
2023-01-29T23:12:46.975Z,100928.81
2023-01-29T23:15:15.131Z,100920.03
2023-01-29T23:17:43.496Z,100902.50
2023-01-29T23:20:13.382Z,100887.59
2023-01-29T23:22:41.764Z,100856.13
2023-01-29T23:25:10.838Z,100836.50
2023-01-29T23:27:37.935Z,100820.44
2023-01-29T23:30:09.771Z,100801.84
2023-01-29T23:32:37.900Z,100796.56
2023-01-29T23:35:07.007Z,100808.09
2023-01-29T23:37:35.187Z,100810.81
2023-01-29T23:40:03.911Z,100810.72
2023-01-29T23:42:31.919Z,100822.97
2023-01-29T23:45:00.021Z,100806.72
2023-01-29T23:47:29.425Z,100798.66
2023-01-29T23:49:57.447Z,100805.00
2023-01-29T23:52:25.515Z,100801.44
2023-01-29T23:54:53.556Z,100786.41
2023-01-29T23:57:21.690Z,100771.31
2023-01-29T23:59:50.129Z,100770.56
